createdAt,value
2022-09-02T00:01:42.430Z,56.72
2022-09-02T00:11:46.147Z,57.17
2022-09-02T00:21:49.101Z,57.48
2022-09-02T00:31:50.914Z,57.98
2022-09-02T00:41:52.938Z,57.72
2022-09-02T00:52:02.107Z,57.43
2022-09-02T01:02:05.255Z,57.82
2022-09-02T01:12:08.118Z,58.34
2022-09-02T01:22:22.574Z,58.28
2022-09-02T01:32:27.002Z,58.07
2022-09-02T01:42:29.705Z,57.82
2022-09-02T01:52:32.280Z,57.67
2022-09-02T02:02:34.365Z,57.02
2022-09-02T02:12:38.061Z,57.48
2022-09-02T02:22:40.934Z,57.43
2022-09-02T02:32:43.289Z,57.14
2022-09-02T02:42:48.195Z,56.63
2022-09-02T02:52:51.853Z,56.63
2022-09-02T03:03:00.427Z,57.42
2022-09-02T03:13:03.385Z,58.07
2022-09-02T03:23:05.592Z,58.13
2022-09-02T03:33:07.980Z,58.06
2022-09-02T03:43:09.595Z,58.01
2022-09-02T03:53:16.340Z,57.76
2022-09-02T04:03:23.930Z,57.95
2022-09-02T04:13:25.860Z,58.00
2022-09-02T04:23:28.697Z,59.11
2022-09-02T04:33:30.273Z,58.89
2022-09-02T04:43:31.984Z,57.85
2022-09-02T04:53:34.553Z,57.52
2022-09-02T05:03:38.134Z,57.28
2022-09-02T05:13:42.202Z,57.18
2022-09-02T05:23:43.854Z,56.37
2022-09-02T05:33:46.106Z,55.61
2022-09-02T05:43:57.156Z,54.58
2022-09-02T05:54:03.476Z,53.96
2022-09-02T06:04:06.626Z,53.73
2022-09-02T06:14:09.464Z,53.10
2022-09-02T06:24:13.981Z,52.21
2022-09-02T06:34:19.346Z,51.81
2022-09-02T06:44:23.234Z,50.32
2022-09-02T06:54:25.624Z,46.50
2022-09-02T07:04:57.692Z,23.30
2022-09-02T07:14:59.630Z,17.44
2022-09-02T07:25:11.667Z,14.18
2022-09-02T07:35:13.467Z,14.42
2022-09-02T07:45:15.830Z,13.18
2022-09-02T07:55:20.158Z,12.66
2022-09-02T08:05:22.251Z,10.25
2022-09-02T08:15:24.367Z,8.96
2022-09-02T08:25:26.170Z,8.54
2022-09-02T08:35:27.746Z,10.68
2022-09-02T08:45:38.704Z,11.58
2022-09-02T08:55:47.151Z,11.35
2022-09-02T09:06:05.363Z,11.55
2022-09-02T09:16:22.716Z,11.00
2022-09-02T09:26:29.029Z,10.12
2022-09-02T09:36:43.652Z,10.31
2022-09-02T09:46:45.153Z,10.71
2022-09-02T09:56:46.839Z,10.82
2022-09-02T10:06:48.900Z,11.63
2022-09-02T10:17:24.491Z,12.34
2022-09-02T10:27:44.628Z,11.73
2022-09-02T10:38:12.323Z,10.95
2022-09-02T10:48:38.038Z,11.13
2022-09-02T10:58:56.955Z,9.57
2022-09-02T11:09:09.469Z,14.48
2022-09-02T11:19:16.173Z,20.33
2022-09-02T11:29:23.337Z,23.75
2022-09-02T11:40:11.580Z,25.01
2022-09-02T11:50:23.897Z,24.70
2022-09-02T12:00:54.157Z,24.23
2022-09-02T12:10:55.827Z,24.90
2022-09-02T12:20:57.225Z,24.07
2022-09-02T12:31:01.633Z,25.53
2022-09-02T12:41:06.114Z,23.74
2022-09-02T12:51:09.946Z,23.48
2022-09-02T13:01:36.363Z,22.56
2022-09-02T13:12:20.880Z,23.77
2022-09-02T13:22:40.438Z,22.22
2022-09-02T13:32:42.237Z,22.38
2022-09-02T13:42:55.470Z,22.94
2022-09-02T14:03:23.171Z,21.59
2022-09-02T14:13:25.265Z,22.39
2022-09-02T14:23:30.266Z,21.92
2022-09-02T14:33:42.572Z,22.81
2022-09-02T14:43:54.404Z,22.89
2022-09-02T14:53:55.860Z,23.58
2022-09-02T15:03:57.877Z,23.60
2022-09-02T15:13:59.428Z,24.63
2022-09-02T15:24:00.964Z,24.98
2022-09-02T15:34:03.022Z,25.17
2022-09-02T15:44:07.552Z,25.45
2022-09-02T15:54:11.405Z,26.16
2022-09-02T16:04:19.017Z,26.77
2022-09-02T16:14:21.646Z,26.96
2022-09-02T16:24:24.535Z,27.48
2022-09-02T16:34:26.587Z,27.42
2022-09-02T16:44:28.946Z,27.89
2022-09-02T16:54:32.432Z,28.58
2022-09-02T17:04:35.865Z,29.43
2022-09-02T17:14:37.704Z,29.67
2022-09-02T17:24:41.846Z,30.22
2022-09-02T17:34:43.386Z,30.50
2022-09-02T17:44:45.134Z,31.09
2022-09-02T17:54:49.786Z,32.07
2022-09-02T18:05:08.481Z,32.92
2022-09-02T18:15:15.727Z,33.61
2022-09-02T18:25:37.761Z,34.78
2022-09-02T18:35:57.527Z,35.04
2022-09-02T18:46:02.321Z,35.21
2022-09-02T18:56:09.754Z,35.67
2022-09-02T19:06:20.490Z,36.05
2022-09-02T19:16:26.714Z,36.03
2022-09-02T19:26:28.282Z,36.38
2022-09-02T19:36:32.610Z,36.74
2022-09-02T19:56:55.618Z,38.14
2022-09-02T20:06:58.857Z,39.44
2022-09-02T20:17:03.670Z,39.78
2022-09-02T20:27:39.929Z,41.05
2022-09-02T20:38:03.189Z,41.90
2022-09-02T20:48:10.686Z,42.86
2022-09-02T20:58:28.400Z,42.97
2022-09-02T21:08:45.773Z,43.33
2022-09-02T21:19:00.582Z,43.89
2022-09-02T21:29:11.018Z,43.82
2022-09-02T21:39:17.657Z,44.14
2022-09-02T21:49:49.448Z,45.13
2022-09-02T22:00:05.845Z,46.36
2022-09-02T22:10:32.736Z,46.66
2022-09-02T22:20:39.036Z,47.25
2022-09-02T22:30:47.727Z,47.57
2022-09-02T22:41:23.667Z,48.07
2022-09-02T22:51:57.365Z,48.20
2022-09-02T23:02:23.413Z,48.91
2022-09-02T23:12:42.526Z,48.96
2022-09-02T23:22:57.487Z,50.23
2022-09-02T23:33:09.980Z,50.34
2022-09-02T23:43:17.926Z,50.13
2022-09-02T23:53:43.813Z,50.50
